Time;durP1;ratioP1;P1;durP2;ratioP2;P2;SDS_P1;SDS_P2;PMS_P1;PMS_P2;Temp;Humidity;BMP_temperature;BMP_pressure;BME280_temperature;BME280_humidity;BME280_pressure;Samples;Min_cycle;Max_cycle;Signal;HPM_P1;HPM_P2
2024/03/09 00:00:31;;;;;;;25.63;17.65;;;;;;;;;;5111100;27;20388;-62
2024/03/09 00:03:00;;;;;;;22.05;16.65;;;;;;;;;;5155808;27;20102;-62
2024/03/09 00:05:26;;;;;;;22.75;16.48;;;;;;;;;;5155443;27;20023;-61
2024/03/09 00:07:54;;;;;;;22.85;16.77;;;;;;;;;;5150386;27;20042;-62
2024/03/09 00:10:20;;;;;;;20.38;16.05;;;;;;;;;;5137008;27;20023;-62
2024/03/09 00:12:49;;;;;;;26.33;19.50;;;;;;;;;;5136891;27;20357;-62
2024/03/09 00:15:16;;;;;;;27.05;19.20;;;;;;;;;;5155244;27;20018;-61
2024/03/09 00:17:49;;;;;;;25.80;18.40;;;;;;;;;;5154828;27;20156;-61
2024/03/09 00:20:19;;;;;;;28.67;19.02;;;;;;;;;;5136664;27;20387;-62
2024/03/09 00:22:45;;;;;;;22.00;16.63;;;;;;;;;;5155503;27;20019;-61
2024/03/09 00:25:11;;;;;;;22.98;17.20;;;;;;;;;;5155093;27;20042;-61
2024/03/09 00:27:42;;;;;;;23.60;17.80;;;;;;;;;;5128107;27;20023;-61
2024/03/09 00:30:20;;;;;;;22.63;15.20;;;;;;;;;;5155140;27;20027;-61
2024/03/09 00:32:47;;;;;;;23.00;16.60;;;;;;;;;;5141921;27;20027;-61
2024/03/09 00:35:13;;;;;;;22.40;16.23;;;;;;;;;;5136461;27;20075;-61
2024/03/09 00:37:39;;;;;;;22.80;15.73;;;;;;;;;;5124545;27;20356;-61
2024/03/09 00:40:08;;;;;;;21.42;15.38;;;;;;;;;;5155068;27;20499;-61
2024/03/09 00:42:34;;;;;;;22.90;17.05;;;;;;;;;;5154810;27;20048;-62
2024/03/09 00:45:04;;;;;;;23.23;17.15;;;;;;;;;;5135225;27;20133;-61
2024/03/09 00:47:30;;;;;;;24.25;17.95;;;;;;;;;;5153475;27;20174;-61
2024/03/09 00:49:57;;;;;;;25.63;18.20;;;;;;;;;;5136143;27;20113;-62
2024/03/09 00:52:26;;;;;;;23.70;17.80;;;;;;;;;;5154070;27;20419;-62
2024/03/09 00:54:53;;;;;;;23.27;17.35;;;;;;;;;;5150385;27;20033;-61
2024/03/09 00:57:20;;;;;;;22.45;15.25;;;;;;;;;;5133095;27;20019;-62
2024/03/09 00:59:47;;;;;;;23.33;16.80;;;;;;;;;;5154659;27;20506;-61
2024/03/09 01:02:13;;;;;;;24.20;18.00;;;;;;;;;;5154621;27;20540;-62
2024/03/09 01:04:39;;;;;;;21.95;17.10;;;;;;;;;;5129595;27;20053;-61
2024/03/09 01:07:05;;;;;;;22.42;17.17;;;;;;;;;;5135107;27;20484;-61
2024/03/09 01:09:31;;;;;;;25.92;17.90;;;;;;;;;;5154403;27;20030;-61
2024/03/09 01:11:57;;;;;;;22.65;15.52;;;;;;;;;;5135454;27;20429;-61
2024/03/09 01:14:23;;;;;;;22.80;17.25;;;;;;;;;;5132521;27;20015;-62
2024/03/09 01:16:50;;;;;;;21.33;14.95;;;;;;;;;;5153279;27;20113;-61
2024/03/09 01:19:18;;;;;;;18.90;14.35;;;;;;;;;;5154012;27;20385;-61
2024/03/09 01:21:46;;;;;;;22.55;15.93;;;;;;;;;;5141096;27;20535;-61
2024/03/09 01:24:12;;;;;;;21.70;15.70;;;;;;;;;;5149823;27;20027;-62
2024/03/09 01:26:44;;;;;;;18.80;14.27;;;;;;;;;;5126227;27;20042;-61
2024/03/09 01:29:10;;;;;;;21.02;15.73;;;;;;;;;;5140204;27;20027;-62
2024/03/09 01:31:38;;;;;;;20.67;15.73;;;;;;;;;;5151827;27;20490;-61
2024/03/09 01:34:05;;;;;;;17.52;13.60;;;;;;;;;;5144956;27;20114;-62
2024/03/09 01:36:34;;;;;;;20.63;15.00;;;;;;;;;;5132699;27;20405;-62
2024/03/09 01:39:00;;;;;;;25.70;17.42;;;;;;;;;;5150025;27;20470;-61
2024/03/09 01:41:28;;;;;;;21.90;16.70;;;;;;;;;;5144764;27;20051;-62
2024/03/09 01:43:55;;;;;;;21.05;16.95;;;;;;;;;;5146522;27;20112;-62
2024/03/09 01:46:22;;;;;;;23.65;16.80;;;;;;;;;;5149406;27;20496;-62
2024/03/09 01:48:49;;;;;;;24.20;16.77;;;;;;;;;;5152680;27;20539;-62
2024/03/09 02:00:26;;;;;;;21.15;15.40;;;;;;;;;;5151369;27;20034;-62
2024/03/09 02:02:54;;;;;;;19.65;15.20;;;;;;;;;;5138879;27;20501;-62
2024/03/09 02:05:20;;;;;;;20.45;16.27;;;;;;;;;;5143041;27;20038;-61
2024/03/09 02:07:47;;;;;;;19.77;16.02;;;;;;;;;;5146738;27;20015;-61
2024/03/09 02:10:13;;;;;;;18.30;14.13;;;;;;;;;;5152894;27;20110;-61
2024/03/09 02:12:39;;;;;;;19.60;14.88;;;;;;;;;;5133252;27;20026;-62
2024/03/09 02:15:11;;;;;;;21.42;15.00;;;;;;;;;;5140252;27;20037;-62
2024/03/09 02:17:37;;;;;;;20.70;14.95;;;;;;;;;;5150130;27;20073;-62
2024/03/09 02:20:10;;;;;;;18.38;14.55;;;;;;;;;;5152705;27;20475;-62
2024/03/09 02:22:36;;;;;;;18.63;13.45;;;;;;;;;;5150206;27;20018;-62
2024/03/09 02:25:02;;;;;;;18.50;14.23;;;;;;;;;;5120944;27;20045;-62
2024/03/09 02:27:28;;;;;;;20.40;14.77;;;;;;;;;;5151480;27;20027;-62
2024/03/09 02:29:54;;;;;;;24.38;17.08;;;;;;;;;;5143647;27;20023;-62
2024/03/09 02:32:21;;;;;;;21.20;16.73;;;;;;;;;;5131879;27;20337;-61
2024/03/09 02:34:48;;;;;;;21.10;16.85;;;;;;;;;;5145911;27;20057;-61
2024/03/09 02:37:14;;;;;;;24.67;17.13;;;;;;;;;;5152637;27;20082;-61
2024/03/09 02:39:41;;;;;;;22.45;16.13;;;;;;;;;;5137232;27;20122;-61
2024/03/09 02:42:08;;;;;;;23.80;17.52;;;;;;;;;;5124887;27;20365;-61
2024/03/09 02:44:34;;;;;;;23.45;16.85;;;;;;;;;;5121469;27;20034;-61
2024/03/09 02:47:00;;;;;;;24.20;17.13;;;;;;;;;;5133590;27;20046;-60
2024/03/09 02:49:26;;;;;;;27.90;19.00;;;;;;;;;;5133687;27;20027;-60
2024/03/09 02:51:53;;;;;;;25.97;18.23;;;;;;;;;;5152428;27;20031;-61
2024/03/09 02:54:19;;;;;;;22.98;17.25;;;;;;;;;;5133026;27;20063;-62
2024/03/09 02:56:46;;;;;;;22.02;18.05;;;;;;;;;;5146984;27;20055;-62
2024/03/09 02:59:12;;;;;;;22.92;17.20;;;;;;;;;;5143483;27;20503;-62
2024/03/09 03:01:38;;;;;;;23.17;18.52;;;;;;;;;;5152316;27;20482;-62
2024/03/09 03:04:04;;;;;;;21.45;16.13;;;;;;;;;;5142634;27;20026;-61
2024/03/09 03:06:32;;;;;;;24.48;18.20;;;;;;;;;;5147461;27;20095;-62
2024/03/09 03:09:00;;;;;;;26.83;18.50;;;;;;;;;;5151727;27;20031;-62
2024/03/09 03:11:28;;;;;;;27.27;19.45;;;;;;;;;;5133599;27;20083;-62
2024/03/09 03:13:54;;;;;;;25.83;18.98;;;;;;;;;;5152134;27;20030;-62
2024/03/09 03:16:27;;;;;;;24.40;18.13;;;;;;;;;;5152555;27;20439;-62
2024/03/09 03:18:53;;;;;;;26.48;19.25;;;;;;;;;;5151698;27;20054;-63
2024/03/09 03:21:20;;;;;;;27.02;18.70;;;;;;;;;;5136436;27;20023;-62
2024/03/09 03:23:48;;;;;;;25.30;18.67;;;;;;;;;;5155956;27;20041;-62
2024/03/09 03:26:19;;;;;;;23.88;17.38;;;;;;;;;;5149988;27;20038;-62
2024/03/09 03:28:45;;;;;;;25.05;17.73;;;;;;;;;;5136949;27;20469;-62
2024/03/09 03:31:12;;;;;;;22.35;17.23;;;;;;;;;;5155711;27;20026;-62
2024/03/09 03:33:39;;;;;;;24.40;18.50;;;;;;;;;;5147333;27;20441;-62
2024/03/09 03:36:19;;;;;;;26.10;18.63;;;;;;;;;;5140951;27;20027;-62
2024/03/09 03:38:49;;;;;;;23.38;19.08;;;;;;;;;;5155648;27;20022;-62
2024/03/09 03:41:16;;;;;;;22.60;17.55;;;;;;;;;;5141362;27;20026;-62
2024/03/09 03:43:42;;;;;;;27.85;19.42;;;;;;;;;;5154558;27;20026;-62
2024/03/09 03:46:09;;;;;;;24.25;18.10;;;;;;;;;;5136252;27;20121;-62
2024/03/09 03:48:35;;;;;;;24.52;19.10;;;;;;;;;;5155367;27;20019;-62
2024/03/09 03:51:02;;;;;;;26.58;19.10;;;;;;;;;;5136325;27;20030;-63
2024/03/09 03:53:38;;;;;;;22.48;16.23;;;;;;;;;;5148610;27;20449;-62
2024/03/09 03:56:04;;;;;;;23.58;18.55;;;;;;;;;;5151617;27;20018;-62
2024/03/09 03:58:30;;;;;;;25.33;18.83;;;;;;;;;;5155419;27;20133;-63
2024/03/09 04:00:56;;;;;;;27.52;19.27;;;;;;;;;;5155187;27;20022;-62
2024/03/09 04:03:22;;;;;;;22.88;17.42;;;;;;;;;;5149118;27;20026;-62
2024/03/09 04:05:49;;;;;;;24.60;17.65;;;;;;;;;;5147382;27;20460;-62
2024/03/09 04:08:16;;;;;;;24.65;18.65;;;;;;;;;;5142265;27;20015;-62
2024/03/09 04:10:43;;;;;;;28.17;18.73;;;;;;;;;;5146200;27;20019;-62
2024/03/09 04:13:11;;;;;;;24.33;18.02;;;;;;;;;;5155421;27;20093;-62
2024/03/09 04:15:38;;;;;;;25.15;17.70;;;;;;;;;;5155670;27;20033;-62
2024/03/09 04:18:14;;;;;;;25.95;18.58;;;;;;;;;;5141438;27;20030;-61
2024/03/09 04:20:40;;;;;;;24.70;18.67;;;;;;;;;;5155681;27;20439;-61
2024/03/09 04:23:07;;;;;;;27.27;18.50;;;;;;;;;;5150406;27;20105;-61
2024/03/09 04:25:41;;;;;;;26.38;19.35;;;;;;;;;;5155135;27;20026;-61
2024/03/09 04:28:09;;;;;;;27.73;20.10;;;;;;;;;;5144069;27;20016;-62
2024/03/09 04:30:36;;;;;;;26.05;19.42;;;;;;;;;;5135849;27;20484;-61
2024/03/09 04:33:04;;;;;;;29.08;20.92;;;;;;;;;;5155208;27;20102;-61
2024/03/09 04:35:31;;;;;;;26.70;19.60;;;;;;;;;;5153655;27;20098;-61
2024/03/09 04:37:57;;;;;;;27.23;18.83;;;;;;;;;;5155290;27;20383;-62
2024/03/09 04:40:23;;;;;;;24.58;17.63;;;;;;;;;;5155092;27;20026;-61
2024/03/09 04:42:49;;;;;;;22.63;17.77;;;;;;;;;;5154929;27;20015;-61
2024/03/09 04:45:19;;;;;;;23.05;17.40;;;;;;;;;;5134921;27;20068;-61
2024/03/09 04:47:46;;;;;;;26.10;18.95;;;;;;;;;;5152777;27;20042;-62
2024/03/09 04:50:17;;;;;;;29.55;20.92;;;;;;;;;;5154854;27;20030;-61
2024/03/09 04:52:46;;;;;;;27.20;19.60;;;;;;;;;;5151785;27;20043;-61
2024/03/09 04:55:12;;;;;;;28.15;21.17;;;;;;;;;;5143739;27;20019;-61
2024/03/09 04:57:38;;;;;;;32.78;22.35;;;;;;;;;;5131399;27;20387;-61
2024/03/09 05:03:11;;;;;;;27.65;21.00;;;;;;;;;;5152214;27;20091;-62
2024/03/09 05:05:39;;;;;;;29.83;20.85;;;;;;;;;;5153517;27;20041;-63
2024/03/09 05:08:06;;;;;;;28.13;21.42;;;;;;;;;;5154415;27;20058;-63
2024/03/09 05:10:32;;;;;;;28.10;21.20;;;;;;;;;;5144566;27;20497;-62
2024/03/09 05:12:58;;;;;;;29.48;20.20;;;;;;;;;;5149935;27;20034;-62
2024/03/09 05:15:25;;;;;;;26.83;20.42;;;;;;;;;;5135864;27;20038;-62
2024/03/09 05:17:52;;;;;;;29.58;20.77;;;;;;;;;;5145250;27;20533;-62
2024/03/09 05:20:22;;;;;;;25.58;19.90;;;;;;;;;;5140152;27;20030;-63
2024/03/09 05:22:49;;;;;;;28.15;20.23;;;;;;;;;;5131125;27;20026;-62
2024/03/09 05:25:15;;;;;;;26.80;19.70;;;;;;;;;;5153990;27;20038;-62
2024/03/09 05:27:42;;;;;;;26.70;18.90;;;;;;;;;;5147179;27;20450;-62
2024/03/09 05:30:09;;;;;;;29.90;19.92;;;;;;;;;;5147252;27;20106;-63
2024/03/09 05:32:35;;;;;;;24.85;18.77;;;;;;;;;;5131800;27;20495;-62
2024/03/09 05:35:03;;;;;;;23.15;18.23;;;;;;;;;;5154047;27;20026;-62
2024/03/09 05:37:29;;;;;;;23.98;17.73;;;;;;;;;;5150346;27;20531;-62
2024/03/09 05:39:56;;;;;;;20.33;16.02;;;;;;;;;;5144142;27;20031;-63
2024/03/09 05:42:22;;;;;;;22.75;16.70;;;;;;;;;;5151347;27;20076;-62
2024/03/09 05:44:48;;;;;;;20.75;15.65;;;;;;;;;;5145823;27;20417;-62
2024/03/09 05:47:14;;;;;;;22.67;16.88;;;;;;;;;;5147331;27;20047;-63
2024/03/09 05:49:40;;;;;;;23.85;17.10;;;;;;;;;;5151799;27;20019;-62
2024/03/09 05:52:13;;;;;;;22.98;16.77;;;;;;;;;;5153347;27;20087;-62
2024/03/09 05:54:39;;;;;;;22.42;16.42;;;;;;;;;;5153697;27;20053;-61
2024/03/09 05:57:05;;;;;;;24.17;16.52;;;;;;;;;;5154031;27;20042;-61
2024/03/09 06:02:41;;;;;;;23.02;16.17;;;;;;;;;;5152742;27;20095;-62
2024/03/09 06:05:08;;;;;;;18.27;13.30;;;;;;;;;;5153636;27;20023;-62
2024/03/09 06:07:40;;;;;;;19.92;14.90;;;;;;;;;;5149547;27;20027;-61
2024/03/09 06:10:07;;;;;;;20.70;15.20;;;;;;;;;;5150392;27;20029;-61
2024/03/09 06:12:34;;;;;;;19.15;14.70;;;;;;;;;;5145073;27;20094;-62
2024/03/09 06:15:00;;;;;;;19.70;14.20;;;;;;;;;;5152152;27;20015;-61
2024/03/09 06:17:26;;;;;;;18.38;14.05;;;;;;;;;;5144475;27;20019;-61
2024/03/09 06:19:54;;;;;;;19.70;14.20;;;;;;;;;;5152359;27;20019;-62
2024/03/09 06:22:26;;;;;;;15.30;12.27;;;;;;;;;;5138587;27;20490;-62
2024/03/09 06:24:52;;;;;;;17.70;13.30;;;;;;;;;;5138269;27;20484;-62
2024/03/09 06:27:18;;;;;;;18.35;13.75;;;;;;;;;;5148098;27;20033;-62
2024/03/09 06:29:44;;;;;;;17.60;13.25;;;;;;;;;;5152259;27;20023;-62
2024/03/09 06:32:11;;;;;;;16.80;12.50;;;;;;;;;;5153138;27;20528;-62
2024/03/09 06:34:43;;;;;;;18.02;12.45;;;;;;;;;;5152572;27;20019;-62
2024/03/09 06:37:10;;;;;;;14.27;11.50;;;;;;;;;;5149229;27;20109;-62
2024/03/09 06:39:38;;;;;;;16.05;11.20;;;;;;;;;;5152269;27;20042;-62
2024/03/09 06:42:06;;;;;;;14.48;11.20;;;;;;;;;;5150232;27;20015;-62
2024/03/09 06:44:32;;;;;;;14.18;10.95;;;;;;;;;;5152341;27;20090;-62
2024/03/09 06:46:58;;;;;;;15.55;11.38;;;;;;;;;;5134266;27;20456;-62
2024/03/09 06:49:37;;;;;;;17.00;12.00;;;;;;;;;;5152327;27;20050;-62
2024/03/09 06:52:03;;;;;;;15.48;11.43;;;;;;;;;;5140692;27;20035;-62
2024/03/09 06:54:29;;;;;;;14.60;11.68;;;;;;;;;;5151343;27;20019;-62
2024/03/09 06:56:56;;;;;;;13.43;10.77;;;;;;;;;;5156788;27;20037;-62
2024/03/09 06:59:22;;;;;;;14.15;10.18;;;;;;;;;;5156519;27;20477;-62
2024/03/09 07:01:51;;;;;;;14.82;11.40;;;;;;;;;;5156741;27;20069;-61
2024/03/09 07:04:18;;;;;;;16.08;11.60;;;;;;;;;;5155194;27;20053;-62
2024/03/09 07:06:45;;;;;;;15.43;10.73;;;;;;;;;;5148859;27;20018;-62
2024/03/09 07:09:11;;;;;;;15.20;10.63;;;;;;;;;;5154118;27;20105;-62
2024/03/09 07:11:40;;;;;;;12.57;10.18;;;;;;;;;;5156435;27;20038;-62
2024/03/09 07:14:07;;;;;;;13.13;9.90;;;;;;;;;;5152423;27;20018;-62
2024/03/09 07:16:33;;;;;;;13.45;10.27;;;;;;;;;;5156556;27;20038;-62
2024/03/09 07:18:59;;;;;;;14.38;10.93;;;;;;;;;;5156583;27;20058;-62
2024/03/09 07:21:40;;;;;;;14.75;10.13;;;;;;;;;;5156903;27;20018;-62
2024/03/09 07:24:07;;;;;;;15.00;10.80;;;;;;;;;;5155752;27;20102;-62
2024/03/09 07:26:33;;;;;;;13.93;9.57;;;;;;;;;;5141981;27;20040;-62
2024/03/09 07:28:59;;;;;;;11.88;9.20;;;;;;;;;;5144243;27;20027;-62
2024/03/09 07:31:27;;;;;;;11.57;8.30;;;;;;;;;;5148219;27;20091;-62
2024/03/09 07:33:54;;;;;;;13.98;8.70;;;;;;;;;;5151299;27;20030;-63
2024/03/09 07:36:27;;;;;;;9.63;7.97;;;;;;;;;;5153952;27;20023;-63
2024/03/09 07:38:54;;;;;;;11.27;8.65;;;;;;;;;;5146619;27;20023;-63
2024/03/09 07:41:23;;;;;;;10.23;8.40;;;;;;;;;;5145110;27;20030;-63
2024/03/09 07:43:51;;;;;;;10.50;8.35;;;;;;;;;;5137770;27;20515;-63
2024/03/09 07:46:20;;;;;;;9.98;7.60;;;;;;;;;;5135101;27;20043;-63
2024/03/09 07:48:45;;;;;;;9.77;7.65;;;;;;;;;;5140720;27;20030;-59
2024/03/09 07:51:13;;;;;;;9.02;7.65;;;;;;;;;;5155220;27;20027;-59
2024/03/09 07:53:39;;;;;;;10.93;7.65;;;;;;;;;;5141266;27;20057;-60
2024/03/09 07:56:05;;;;;;;11.52;8.55;;;;;;;;;;5151492;27;20038;-59
2024/03/09 07:58:31;;;;;;;11.05;8.48;;;;;;;;;;5151407;27;20019;-59
2024/03/09 08:00:58;;;;;;;9.98;8.48;;;;;;;;;;5149360;27;20499;-59
2024/03/09 08:03:24;;;;;;;8.80;7.85;;;;;;;;;;5146733;27;20027;-58
2024/03/09 08:05:51;;;;;;;8.98;6.60;;;;;;;;;;5154120;27;20042;-60
2024/03/09 08:08:17;;;;;;;8.65;7.72;;;;;;;;;;5146599;27;20027;-60
2024/03/09 08:10:46;;;;;;;8.82;7.20;;;;;;;;;;5129613;27;20384;-60
2024/03/09 08:13:13;;;;;;;9.52;7.57;;;;;;;;;;5155822;27;20117;-59
2024/03/09 08:15:39;;;;;;;9.55;6.97;;;;;;;;;;5155306;27;20547;-58
2024/03/09 08:18:08;;;;;;;10.20;6.80;;;;;;;;;;5155301;27;20019;-59
2024/03/09 08:20:35;;;;;;;8.38;6.40;;;;;;;;;;5154642;27;20410;-60
2024/03/09 08:23:04;;;;;;;8.50;6.90;;;;;;;;;;5155181;27;20451;-58
2024/03/09 08:25:30;;;;;;;8.68;7.28;;;;;;;;;;5148420;27;20034;-59
2024/03/09 08:28:00;;;;;;;8.00;6.32;;;;;;;;;;5146832;27;20101;-58
2024/03/09 08:30:26;;;;;;;7.63;5.85;;;;;;;;;;5119340;27;20022;-55
2024/03/09 08:32:58;;;;;;;6.72;5.75;;;;;;;;;;5146212;27;20151;-60
2024/03/09 08:35:24;;;;;;;7.35;5.85;;;;;;;;;;5140676;27;20162;-59
2024/03/09 08:37:51;;;;;;;7.43;6.50;;;;;;;;;;5154290;27;20023;-57
2024/03/09 08:40:19;;;;;;;7.65;6.57;;;;;;;;;;5151349;27;20085;-59
2024/03/09 08:42:50;;;;;;;7.97;6.38;;;;;;;;;;5152017;27;20037;-58
2024/03/09 08:45:16;;;;;;;9.13;7.07;;;;;;;;;;5148988;27;20035;-63
2024/03/09 08:50:49;;;;;;;9.45;6.97;;;;;;;;;;5149952;27;20029;-55
2024/03/09 08:53:17;;;;;;;9.05;7.53;;;;;;;;;;5151533;27;20038;-61
2024/03/09 08:55:45;;;;;;;8.48;7.55;;;;;;;;;;5148117;27;20022;-68
2024/03/09 08:58:11;;;;;;;10.52;7.45;;;;;;;;;;5136264;27;20386;-70
2024/03/09 09:00:37;;;;;;;8.20;7.15;;;;;;;;;;5154789;27;20023;-70
2024/03/09 09:03:05;;;;;;;12.98;7.70;;;;;;;;;;5154900;27;20314;-66
2024/03/09 09:05:34;;;;;;;11.20;7.30;;;;;;;;;;5154486;27;20498;-65
2024/03/09 09:08:00;;;;;;;7.60;6.32;;;;;;;;;;5154783;27;20034;-66
2024/03/09 09:10:26;;;;;;;7.50;6.32;;;;;;;;;;5149302;27;20095;-65
2024/03/09 09:12:54;;;;;;;7.97;6.80;;;;;;;;;;5126393;27;20019;-65
2024/03/09 09:15:20;;;;;;;7.60;5.63;;;;;;;;;;5135567;27;20019;-65
2024/03/09 09:17:46;;;;;;;7.88;7.07;;;;;;;;;;5133565;27;20030;-65
2024/03/09 09:20:12;;;;;;;8.70;7.05;;;;;;;;;;5149561;27;20034;-65
2024/03/09 09:22:42;;;;;;;8.50;7.50;;;;;;;;;;5135175;27;20034;-65
2024/03/09 09:25:12;;;;;;;9.40;7.47;;;;;;;;;;5153023;27;20487;-65
2024/03/09 09:30:43;;;;;;;8.90;7.63;;;;;;;;;;5149358;27;20042;-66
2024/03/09 09:33:13;;;;;;;12.00;9.63;;;;;;;;;;5153270;27;20455;-66
2024/03/09 09:35:39;;;;;;;10.32;8.52;;;;;;;;;;5153040;27;20444;-66
2024/03/09 09:38:05;;;;;;;9.27;7.68;;;;;;;;;;5153080;27;20337;-66
2024/03/09 09:40:32;;;;;;;12.02;9.35;;;;;;;;;;5154136;27;20023;-66
2024/03/09 09:43:02;;;;;;;9.90;8.27;;;;;;;;;;5153809;27;20073;-67
2024/03/09 09:45:33;;;;;;;10.88;8.93;;;;;;;;;;5149689;27;20047;-66
2024/03/09 09:48:01;;;;;;;10.65;8.40;;;;;;;;;;5153844;27;20043;-66
2024/03/09 09:50:40;;;;;;;11.73;9.45;;;;;;;;;;5144380;27;20515;-67
2024/03/09 09:53:07;;;;;;;12.32;9.70;;;;;;;;;;5141920;27;20538;-67
2024/03/09 09:55:37;;;;;;;12.95;8.82;;;;;;;;;;5132598;27;20019;-67
2024/03/09 09:58:04;;;;;;;12.68;9.85;;;;;;;;;;5152376;27;20420;-67
2024/03/09 10:00:31;;;;;;;11.75;9.25;;;;;;;;;;5133785;27;20031;-67
2024/03/09 10:03:00;;;;;;;13.10;9.63;;;;;;;;;;5134932;27;20014;-67
2024/03/09 10:05:33;;;;;;;12.25;10.18;;;;;;;;;;5152501;27;20103;-67
2024/03/09 10:08:11;;;;;;;11.73;9.90;;;;;;;;;;5150673;27;20394;-67
2024/03/09 10:10:47;;;;;;;11.07;8.88;;;;;;;;;;5134936;27;20029;-67
2024/03/09 10:13:17;;;;;;;11.07;8.52;;;;;;;;;;5134088;27;20026;-67
2024/03/09 10:15:44;;;;;;;12.20;10.35;;;;;;;;;;5148898;27;20043;-67
2024/03/09 10:18:11;;;;;;;11.25;9.43;;;;;;;;;;5149777;27;20022;-67
2024/03/09 10:20:38;;;;;;;10.80;8.95;;;;;;;;;;5152831;27;20023;-67
2024/03/09 10:23:04;;;;;;;10.48;8.95;;;;;;;;;;5152640;27;20110;-67
2024/03/09 10:25:35;;;;;;;11.48;8.77;;;;;;;;;;5153438;27;20490;-67
2024/03/09 10:28:01;;;;;;;11.70;9.32;;;;;;;;;;5134975;27;20030;-67
2024/03/09 10:30:27;;;;;;;11.75;8.65;;;;;;;;;;5143651;27;20025;-67
2024/03/09 10:32:58;;;;;;;10.38;9.05;;;;;;;;;;5155766;27;20469;-67
2024/03/09 10:35:24;;;;;;;10.07;8.32;;;;;;;;;;5151745;27;20027;-67
2024/03/09 10:37:51;;;;;;;10.55;8.85;;;;;;;;;;5154637;27;20019;-67
2024/03/09 10:40:20;;;;;;;11.48;8.95;;;;;;;;;;5156904;27;20030;-67
2024/03/09 10:42:47;;;;;;;9.05;7.97;;;;;;;;;;5157256;27;20018;-67
2024/03/09 10:45:17;;;;;;;10.52;8.95;;;;;;;;;;5148024;27;20118;-67
2024/03/09 10:47:49;;;;;;;11.52;9.02;;;;;;;;;;5157032;27;20499;-67
2024/03/09 10:50:19;;;;;;;9.07;8.13;;;;;;;;;;5138578;27;20057;-67
2024/03/09 10:52:50;;;;;;;10.07;8.57;;;;;;;;;;5157170;27;20023;-67
2024/03/09 10:55:24;;;;;;;9.30;8.30;;;;;;;;;;5150392;27;20011;-66
2024/03/09 10:57:53;;;;;;;11.75;7.93;;;;;;;;;;5153110;27;20099;-66
2024/03/09 11:00:28;;;;;;;9.75;8.07;;;;;;;;;;5135795;27;20020;-60
2024/03/09 11:03:32;;;;;;;10.13;8.60;;;;;;;;;;5144347;27;20031;-59
2024/03/09 11:05:58;;;;;;;17.83;13.15;;;;;;;;;;5152688;27;20046;-60
2024/03/09 11:08:25;;;;;;;17.77;13.18;;;;;;;;;;5152749;27;20056;-59
2024/03/09 11:10:52;;;;;;;21.42;15.05;;;;;;;;;;5154427;27;20038;-60
2024/03/09 11:13:18;;;;;;;22.70;15.32;;;;;;;;;;5152089;27;20019;-60
2024/03/09 11:15:51;;;;;;;25.52;16.20;;;;;;;;;;5143437;27;20061;-60
2024/03/09 11:18:19;;;;;;;28.45;16.80;;;;;;;;;;5150340;27;20421;-60
2024/03/09 11:21:13;;;;;;;25.33;16.77;;;;;;;;;;5153961;27;20031;-60
2024/03/09 11:23:39;;;;;;;28.05;17.40;;;;;;;;;;5154541;27;20534;-60
2024/03/09 11:26:07;;;;;;;23.35;16.05;;;;;;;;;;5152254;27;20035;-60
2024/03/09 11:28:42;;;;;;;27.77;17.05;;;;;;;;;;5142634;27;20031;-60
2024/03/09 11:31:11;;;;;;;25.83;16.90;;;;;;;;;;5150841;27;20065;-60
2024/03/09 11:33:44;;;;;;;22.60;14.65;;;;;;;;;;5126383;27;20422;-60
2024/03/09 11:36:29;;;;;;;22.65;14.77;;;;;;;;;;5155321;27;20075;-59
2024/03/09 11:38:56;;;;;;;24.63;16.77;;;;;;;;;;5144328;27;20480;-60
2024/03/09 11:41:23;;;;;;;25.33;17.67;;;;;;;;;;5147457;27;20022;-60
2024/03/09 11:43:49;;;;;;;22.80;15.77;;;;;;;;;;5153018;27;20045;-60
2024/03/09 11:46:15;;;;;;;21.90;14.25;;;;;;;;;;5136817;27;20512;-61
2024/03/09 11:48:41;;;;;;;21.52;15.00;;;;;;;;;;5152136;27;20189;-61
2024/03/09 11:51:09;;;;;;;19.65;14.80;;;;;;;;;;5156654;27;20026;-61
2024/03/09 11:53:35;;;;;;;22.27;14.93;;;;;;;;;;5147053;27;20030;-61
2024/03/09 11:56:02;;;;;;;22.15;16.13;;;;;;;;;;5156246;27;20605;-61
2024/03/09 11:58:30;;;;;;;23.90;15.38;;;;;;;;;;5154990;27;20050;-62
2024/03/09 12:00:56;;;;;;;21.63;15.32;;;;;;;;;;5156403;27;20022;-61
2024/03/09 12:03:23;;;;;;;23.92;16.17;;;;;;;;;;5148551;27;20114;-61
2024/03/09 12:05:50;;;;;;;24.15;17.00;;;;;;;;;;5155798;27;20045;-61
2024/03/09 12:08:16;;;;;;;24.30;16.50;;;;;;;;;;5155982;27;20102;-61
2024/03/09 12:10:42;;;;;;;21.08;15.20;;;;;;;;;;5137232;27;20140;-60
2024/03/09 12:13:09;;;;;;;25.13;15.50;;;;;;;;;;5155698;27;20026;-61
2024/03/09 12:15:35;;;;;;;28.50;16.92;;;;;;;;;;5119817;27;20069;-61
2024/03/09 12:18:03;;;;;;;20.45;15.07;;;;;;;;;;5156318;27;20423;-61
2024/03/09 12:20:29;;;;;;;19.90;14.00;;;;;;;;;;5143205;27;20422;-61
2024/03/09 12:22:55;;;;;;;23.65;15.90;;;;;;;;;;5154708;27;20029;-61
2024/03/09 12:25:23;;;;;;;21.13;14.13;;;;;;;;;;5147011;27;20034;-62
2024/03/09 12:27:50;;;;;;;21.75;13.60;;;;;;;;;;5146697;27;20019;-61
2024/03/09 12:30:16;;;;;;;19.30;13.20;;;;;;;;;;5155940;27;20023;-61
2024/03/09 12:32:42;;;;;;;19.17;12.82;;;;;;;;;;5154866;27;20079;-62
2024/03/09 12:44:19;;;;;;;14.07;11.05;;;;;;;;;;5152789;27;20029;-61
2024/03/09 12:46:46;;;;;;;17.80;12.55;;;;;;;;;;5154357;27;20067;-61
2024/03/09 12:49:13;;;;;;;17.67;12.60;;;;;;;;;;5155400;27;20027;-62
2024/03/09 12:51:43;;;;;;;19.90;14.43;;;;;;;;;;5136273;27;20027;-61
2024/03/09 12:54:10;;;;;;;18.67;13.65;;;;;;;;;;5148980;27;20049;-61
2024/03/09 12:56:37;;;;;;;19.02;13.43;;;;;;;;;;5150945;27;20340;-62
2024/03/09 12:59:04;;;;;;;14.52;11.57;;;;;;;;;;5155173;27;20030;-61
2024/03/09 13:01:31;;;;;;;17.70;12.52;;;;;;;;;;5149963;27;20071;-61
2024/03/09 13:03:58;;;;;;;16.80;12.63;;;;;;;;;;5154467;27;20033;-61
2024/03/09 13:06:28;;;;;;;18.88;13.50;;;;;;;;;;5154993;27;20043;-61
2024/03/09 13:08:58;;;;;;;20.50;14.15;;;;;;;;;;5154799;27;20079;-62
2024/03/09 13:11:26;;;;;;;17.55;13.18;;;;;;;;;;5154970;27;20068;-61
2024/03/09 13:13:53;;;;;;;16.67;13.40;;;;;;;;;;5154166;27;20026;-61
2024/03/09 13:16:19;;;;;;;17.80;13.73;;;;;;;;;;5155091;27;20052;-61
2024/03/09 13:18:47;;;;;;;18.25;13.95;;;;;;;;;;5136155;27;20381;-61
2024/03/09 13:21:14;;;;;;;19.40;13.73;;;;;;;;;;5136144;27;20023;-61
2024/03/09 13:23:40;;;;;;;16.90;13.02;;;;;;;;;;5118867;27;20394;-60
2024/03/09 13:26:12;;;;;;;18.10;14.50;;;;;;;;;;5150141;27;20026;-60
2024/03/09 13:28:38;;;;;;;18.10;13.75;;;;;;;;;;5154613;27;20015;-60
2024/03/09 13:31:06;;;;;;;17.63;13.15;;;;;;;;;;5153710;27;20027;-60
2024/03/09 13:33:41;;;;;;;17.75;13.18;;;;;;;;;;5148662;27;20026;-60
2024/03/09 13:36:08;;;;;;;19.00;14.38;;;;;;;;;;5149696;27;20052;-60
2024/03/09 13:38:34;;;;;;;20.13;13.07;;;;;;;;;;5142164;27;20361;-60
2024/03/09 13:41:00;;;;;;;17.75;13.05;;;;;;;;;;5153604;27;20054;-60
2024/03/09 13:43:26;;;;;;;19.63;14.18;;;;;;;;;;5151580;27;20528;-60
2024/03/09 13:45:52;;;;;;;20.23;14.13;;;;;;;;;;5145570;27;20078;-60
2024/03/09 13:48:18;;;;;;;19.80;14.23;;;;;;;;;;5139725;27;20033;-60
2024/03/09 13:50:44;;;;;;;21.33;15.07;;;;;;;;;;5154548;27;20135;-60
2024/03/09 13:53:11;;;;;;;18.17;14.50;;;;;;;;;;5133204;27;20500;-60
2024/03/09 13:55:39;;;;;;;19.27;14.40;;;;;;;;;;5153312;27;20026;-60
2024/03/09 13:58:08;;;;;;;18.48;14.00;;;;;;;;;;5154120;27;20093;-60
2024/03/09 14:00:35;;;;;;;18.48;13.27;;;;;;;;;;5135403;27;20015;-60
2024/03/09 14:03:02;;;;;;;22.05;13.85;;;;;;;;;;5151132;27;20031;-60
2024/03/09 14:05:29;;;;;;;20.23;14.88;;;;;;;;;;5151030;27;20038;-60
2024/03/09 14:07:56;;;;;;;21.25;14.32;;;;;;;;;;5153914;27;20070;-61
2024/03/09 14:10:34;;;;;;;18.77;13.88;;;;;;;;;;5153260;27;20029;-61
2024/03/09 14:13:00;;;;;;;19.92;14.10;;;;;;;;;;5153990;27;20037;-60
2024/03/09 14:15:32;;;;;;;19.75;14.65;;;;;;;;;;5153379;27;20403;-61
2024/03/09 14:17:58;;;;;;;21.50;15.77;;;;;;;;;;5154318;27;20066;-60
2024/03/09 14:20:39;;;;;;;18.58;13.80;;;;;;;;;;5140520;27;20028;-58
2024/03/09 14:23:09;;;;;;;19.38;14.75;;;;;;;;;;5140164;27;20031;-60
2024/03/09 14:25:35;;;;;;;19.50;14.75;;;;;;;;;;5141266;27;20035;-56
2024/03/09 14:28:06;;;;;;;20.58;14.18;;;;;;;;;;5152817;27;20375;-61
2024/03/09 14:30:39;;;;;;;20.88;15.90;;;;;;;;;;5143910;27;20156;-60
2024/03/09 14:33:11;;;;;;;21.53;13.93;;;;;;;;;;5152966;27;20033;-59
2024/03/09 14:35:40;;;;;;;19.08;14.75;;;;;;;;;;5153289;27;20033;-58
2024/03/09 14:38:08;;;;;;;22.30;15.43;;;;;;;;;;5151521;27;20429;-57
2024/03/09 14:40:34;;;;;;;20.55;14.05;;;;;;;;;;5136247;27;20123;-57
2024/03/09 14:43:11;;;;;;;20.80;15.38;;;;;;;;;;5149125;27;20023;-60
2024/03/09 14:45:37;;;;;;;19.70;14.32;;;;;;;;;;5134626;27;20035;-61
2024/03/09 14:48:15;;;;;;;19.30;15.20;;;;;;;;;;5152229;27;20529;-61
2024/03/09 14:50:41;;;;;;;21.83;14.43;;;;;;;;;;5144024;27;20106;-61
2024/03/09 14:53:13;;;;;;;20.30;15.20;;;;;;;;;;5153049;27;20075;-61
2024/03/09 14:55:40;;;;;;;18.75;13.85;;;;;;;;;;5123328;27;20387;-61